Time;durP1;ratioP1;P1;durP2;ratioP2;P2;SDS_P1;SDS_P2;PMS_P1;PMS_P2;Temp;Humidity;BMP_temperature;BMP_pressure;BME280_temperature;BME280_humidity;BME280_pressure;Samples;Min_cycle;Max_cycle;Signal;HPM_P1;HPM_P2
2023/02/10 00:01:19;;;;;;;60.97;39.38;;;;;;;-5.29;78.88;99988.28;5027056;28;20488;-74
2023/02/10 00:03:44;;;;;;;61.25;41.85;;;;;;;-5.17;78.11;99998.00;5025798;28;20033;-73
2023/02/10 00:06:11;;;;;;;58.38;45.08;;;;;;;-5.09;78.16;99979.94;5030350;28;20051;-73
2023/02/10 00:08:36;;;;;;;57.78;40.85;;;;;;;-5.06;77.66;99984.97;5029458;28;20036;-74
2023/02/10 00:11:04;;;;;;;60.33;42.03;;;;;;;-5.22;78.37;99992.19;5055557;28;20376;-73
2023/02/10 00:13:30;;;;;;;58.72;42.95;;;;;;;-5.19;78.06;99984.13;5050168;28;20116;-74
2023/02/10 00:16:00;;;;;;;54.58;42.78;;;;;;;-5.28;77.52;99984.72;5017130;28;20538;-74
2023/02/10 00:18:26;;;;;;;57.28;44.78;;;;;;;-5.55;78.54;99997.03;5051421;28;20044;-74
2023/02/10 00:20:52;;;;;;;56.30;44.90;;;;;;;-5.26;78.93;99995.97;5045368;28;20392;-74
2023/02/10 00:23:17;;;;;;;62.83;47.53;;;;;;;-5.30;78.27;100002.38;5034171;28;20041;-74
2023/02/10 00:25:42;;;;;;;60.97;47.30;;;;;;;-5.26;78.16;100009.09;5060062;28;20110;-73
2023/02/10 00:28:08;;;;;;;63.88;43.33;;;;;;;-5.04;78.04;100001.50;5021579;28;20029;-74
2023/02/10 00:30:33;;;;;;;65.45;48.05;;;;;;;-4.95;78.10;100008.75;5034886;28;20032;-74
2023/02/10 00:32:59;;;;;;;63.30;47.00;;;;;;;-4.98;79.24;100008.97;5066556;28;20037;-74
2023/02/10 00:35:24;;;;;;;68.18;45.40;;;;;;;-5.00;79.12;100000.34;5054192;28;20033;-74
2023/02/10 00:37:50;;;;;;;65.70;43.97;;;;;;;-4.88;78.40;100010.03;5036496;28;20475;-74
2023/02/10 00:40:16;;;;;;;62.20;47.05;;;;;;;-4.83;78.17;100007.91;5054044;28;20108;-74
2023/02/10 00:42:41;;;;;;;68.45;49.50;;;;;;;-4.83;79.11;100005.28;5022627;28;20029;-75
2023/02/10 00:45:07;;;;;;;70.30;47.08;;;;;;;-4.83;78.10;100018.41;5030804;28;20033;-74
2023/02/10 00:47:34;;;;;;;65.20;49.30;;;;;;;-4.93;79.97;100022.63;5028336;28;20551;-73
2023/02/10 00:49:59;;;;;;;69.00;42.10;;;;;;;-5.11;79.34;100015.97;5017369;28;20105;-74
2023/02/10 00:52:25;;;;;;;67.40;43.78;;;;;;;-4.97;79.58;100021.16;5033686;28;20029;-74
2023/02/10 00:54:51;;;;;;;64.47;46.78;;;;;;;-4.81;79.42;100029.69;5050390;28;20021;-74
2023/02/10 00:57:16;;;;;;;69.30;45.10;;;;;;;-4.75;79.26;100028.44;5016505;28;20180;-74
2023/02/10 00:59:42;;;;;;;70.28;44.50;;;;;;;-4.81;79.15;100032.31;5034797;28;20083;-74
2023/02/10 01:02:07;;;;;;;68.47;46.35;;;;;;;-4.73;79.18;100045.78;5034934;28;20521;-74
2023/02/10 01:04:33;;;;;;;67.72;50.42;;;;;;;-4.69;78.54;100052.50;5033683;28;20037;-74
2023/02/10 01:06:58;;;;;;;62.58;49.92;;;;;;;-4.63;78.62;100059.13;5045561;28;20116;-74
2023/02/10 01:09:24;;;;;;;70.57;47.28;;;;;;;-4.72;78.71;100047.47;5030096;28;20029;-74
2023/02/10 01:11:49;;;;;;;64.82;50.40;;;;;;;-4.73;77.90;100044.94;5011947;28;20033;-74
2023/02/10 01:14:15;;;;;;;68.57;47.40;;;;;;;-4.74;78.14;100049.38;5030088;28;20061;-74
2023/02/10 01:16:40;;;;;;;66.20;45.45;;;;;;;-4.77;77.92;100054.81;5042808;28;20147;-74
2023/02/10 01:19:07;;;;;;;64.60;49.33;;;;;;;-4.72;78.09;100063.25;5052556;28;20071;-76
2023/02/10 01:21:33;;;;;;;70.50;52.90;;;;;;;-4.75;78.39;100057.31;5052899;28;20036;-74
2023/02/10 01:23:59;;;;;;;73.47;47.63;;;;;;;-4.69;78.93;100063.00;5053376;28;20489;-74
2023/02/10 01:26:24;;;;;;;75.75;51.25;;;;;;;-4.69;77.78;100057.75;5053000;28;20043;-74
2023/02/10 01:28:50;;;;;;;72.80;47.13;;;;;;;-4.81;78.19;100053.34;5053689;28;20048;-75
2023/02/10 01:31:18;;;;;;;72.60;50.25;;;;;;;-4.69;78.68;100060.38;5036401;28;20116;-75
2023/02/10 01:33:44;;;;;;;71.10;51.47;;;;;;;-4.63;78.88;100061.78;5020041;28;20036;-74
2023/02/10 01:36:15;;;;;;;69.72;51.28;;;;;;;-4.66;79.84;100056.72;5052718;28;20403;-74
2023/02/10 01:38:41;;;;;;;75.65;50.30;;;;;;;-4.73;79.15;100051.03;5043492;28;20047;-75
2023/02/10 01:41:07;;;;;;;76.60;53.13;;;;;;;-4.73;79.34;100056.28;5035356;28;20029;-76
2023/02/10 01:43:52;;;;;;;77.05;43.60;;;;;;;-4.92;79.91;100050.56;5027494;28;20446;-75
2023/02/10 01:46:17;;;;;;;69.30;51.75;;;;;;;-5.01;80.25;100059.06;4999952;28;20041;-76
2023/02/10 01:48:42;;;;;;;75.85;53.15;;;;;;;-4.99;80.91;100059.78;5032107;28;20112;-75
2023/02/10 01:51:08;;;;;;;74.43;55.03;;;;;;;-4.94;80.04;100069.06;5032682;28;20037;-75
2023/02/10 01:53:33;;;;;;;74.00;47.75;;;;;;;-4.89;79.58;100068.75;5049416;28;20029;-74
2023/02/10 01:56:01;;;;;;;76.68;53.72;;;;;;;-4.88;78.79;100059.94;5032899;28;20112;-74
2023/02/10 01:58:29;;;;;;;71.97;55.40;;;;;;;-4.97;79.65;100058.75;5031951;28;20021;-73
2023/02/10 02:00:54;;;;;;;76.05;48.20;;;;;;;-4.94;80.14;100068.22;5012899;28;20041;-74
2023/02/10 02:03:20;;;;;;;74.97;48.88;;;;;;;-4.88;79.71;100051.22;5024856;28;20034;-75
2023/02/10 02:05:45;;;;;;;77.82;55.97;;;;;;;-4.92;80.06;100066.31;5051159;28;20045;-74
2023/02/10 02:08:25;;;;;;;77.55;48.97;;;;;;;-4.88;79.58;100057.31;5036592;28;20022;-74
2023/02/10 02:10:58;;;;;;;75.05;49.72;;;;;;;-4.88;79.50;100063.41;5040060;28;20442;-74
2023/02/10 02:13:30;;;;;;;77.93;44.45;;;;;;;-4.99;78.69;100057.16;5020885;28;20029;-74
2023/02/10 02:16:26;;;;;;;75.15;49.58;;;;;;;-5.10;79.08;100057.88;5041793;28;20067;-75
2023/02/10 02:19:00;;;;;;;75.78;55.75;;;;;;;-5.15;78.93;100059.13;5026729;28;20487;-73
2023/02/10 02:21:59;;;;;;;79.55;54.17;;;;;;;-5.20;77.99;100071.69;5035524;28;20036;-74
2023/02/10 02:24:55;;;;;;;77.88;54.33;;;;;;;-5.27;79.34;100073.03;5038734;28;20045;-75
2023/02/10 02:27:46;;;;;;;81.95;57.20;;;;;;;-5.38;78.84;100070.25;5038353;28;20033;-74
2023/02/10 02:30:28;;;;;;;76.28;53.38;;;;;;;-5.33;78.52;100076.06;5022185;28;20029;-76
2023/02/10 02:32:57;;;;;;;74.95;50.00;;;;;;;-5.31;78.15;100069.78;5068623;28;20041;-76
2023/02/10 02:35:26;;;;;;;74.20;55.88;;;;;;;-5.51;78.98;100064.97;5051932;28;20495;-75
2023/02/10 02:37:52;;;;;;;74.70;55.75;;;;;;;-5.48;77.94;100064.75;5051013;28;20029;-76
2023/02/10 02:40:18;;;;;;;77.18;51.42;;;;;;;-5.53;78.27;100064.22;5051278;28;20025;-76
2023/02/10 02:42:43;;;;;;;80.90;56.83;;;;;;;-5.63;79.36;100063.97;5051868;28;20029;-76
2023/02/10 02:45:12;;;;;;;80.10;56.92;;;;;;;-5.53;79.80;100064.22;5051626;28;20467;-76
2023/02/10 02:47:54;;;;;;;83.68;57.20;;;;;;;-5.57;79.74;100056.63;5051160;28;20087;-75
2023/02/10 02:50:28;;;;;;;85.28;61.13;;;;;;;-5.52;79.56;100070.31;5068305;28;20091;-74
2023/02/10 02:52:56;;;;;;;83.80;60.60;;;;;;;-5.50;79.49;100073.66;5034927;28;20171;-75
2023/02/10 02:55:34;;;;;;;87.18;50.03;;;;;;;-5.49;79.99;100065.72;5034848;28;20029;-75
2023/02/10 02:58:17;;;;;;;84.57;58.70;;;;;;;-5.72;79.38;100064.53;5052104;28;20037;-75
2023/02/10 03:00:43;;;;;;;85.78;51.85;;;;;;;-5.84;79.47;100067.94;5034606;28;20404;-73
2023/02/10 03:03:09;;;;;;;76.93;52.13;;;;;;;-5.68;78.76;100058.16;5049449;28;20043;-74
2023/02/10 03:05:36;;;;;;;79.40;56.97;;;;;;;-5.91;78.97;100052.72;5018332;28;20440;-75
2023/02/10 03:08:01;;;;;;;76.10;51.45;;;;;;;-5.85;79.10;100071.53;5036425;28;20018;-75
2023/02/10 03:10:27;;;;;;;73.70;50.10;;;;;;;-6.12;79.88;100072.38;5043698;28;20045;-75
2023/02/10 03:12:52;;;;;;;74.38;51.63;;;;;;;-6.07;79.89;100079.03;5047958;28;20057;-75
2023/02/10 03:15:17;;;;;;;72.68;44.70;;;;;;;-6.06;79.82;100080.72;5047716;28;20052;-75
2023/02/10 03:17:43;;;;;;;76.82;51.83;;;;;;;-6.09;79.56;100077.44;5030361;28;20041;-73
2023/02/10 03:20:09;;;;;;;68.97;45.85;;;;;;;-6.02;79.71;100079.59;5030913;28;20514;-73
2023/02/10 03:22:35;;;;;;;71.78;48.00;;;;;;;-6.04;80.23;100084.09;5014597;28;20041;-74
2023/02/10 03:25:00;;;;;;;79.78;51.42;;;;;;;-5.95;79.74;100080.88;5047764;28;20061;-74
2023/02/10 03:27:25;;;;;;;77.65;45.38;;;;;;;-6.13;79.58;100074.16;5030307;28;20034;-74
2023/02/10 03:29:52;;;;;;;76.47;57.85;;;;;;;-6.05;79.18;100085.03;5034553;28;20037;-75
2023/02/10 03:32:18;;;;;;;78.07;54.03;;;;;;;-5.99;79.49;100087.28;5067428;28;20033;-74
2023/02/10 03:34:43;;;;;;;82.63;58.60;;;;;;;-6.16;80.14;100074.34;5053879;28;20094;-75
2023/02/10 03:37:09;;;;;;;87.65;61.88;;;;;;;-5.93;80.31;100080.81;5040973;28;20127;-74
2023/02/10 03:39:34;;;;;;;286.15;209.60;;;;;;;-5.88;79.97;100079.56;5029023;28;20044;-73
2023/02/10 03:42:00;;;;;;;124.97;79.53;;;;;;;-5.94;79.27;100079.13;5025411;28;20040;-73
2023/02/10 03:44:25;;;;;;;95.97;68.97;;;;;;;-6.12;79.40;100083.72;5033726;28;20041;-72
2023/02/10 03:46:51;;;;;;;82.10;55.75;;;;;;;-6.08;79.15;100082.59;5030123;28;20037;-73
2023/02/10 03:49:16;;;;;;;78.88;58.58;;;;;;;-6.00;78.33;100085.59;5031694;28;20033;-73
2023/02/10 03:51:41;;;;;;;77.43;53.00;;;;;;;-6.02;78.90;100087.44;5030372;28;20388;-73
2023/02/10 03:54:07;;;;;;;85.00;61.20;;;;;;;-5.94;78.77;100095.69;5046560;28;20091;-73
2023/02/10 03:56:32;;;;;;;88.80;44.10;;;;;;;-5.94;80.14;100095.69;5047081;28;20045;-73
2023/02/10 03:59:00;;;;;;;88.72;51.75;;;;;;;-6.01;79.89;100089.16;5029851;28;20056;-74
2023/02/10 04:01:26;;;;;;;84.45;43.13;;;;;;;-6.15;79.78;100099.63;5047228;28;20041;-74
2023/02/10 04:03:51;;;;;;;88.03;62.55;;;;;;;-6.00;78.76;100109.19;5047021;28;20029;-73
2023/02/10 04:06:17;;;;;;;90.63;64.13;;;;;;;-6.07;78.81;100105.25;5031564;28;20434;-73
2023/02/10 04:08:42;;;;;;;94.78;55.05;;;;;;;-6.03;78.54;100112.00;5045964;28;20041;-73
2023/02/10 04:11:09;;;;;;;92.45;61.75;;;;;;;-6.05;79.06;100108.63;5047145;28;20087;-73
2023/02/10 04:13:35;;;;;;;89.40;65.18;;;;;;;-6.10;79.14;100107.22;5031656;28;20487;-73
2023/02/10 04:16:06;;;;;;;94.72;62.53;;;;;;;-6.03;79.09;100095.41;5031633;28;20060;-73
2023/02/10 04:18:31;;;;;;;85.03;64.15;;;;;;;-5.98;79.00;100111.72;5046069;28;20064;-74
2023/02/10 04:20:57;;;;;;;86.75;50.53;;;;;;;-5.99;78.31;100110.88;5046919;28;20025;-74
2023/02/10 04:23:22;;;;;;;93.03;56.80;;;;;;;-6.12;78.60;100107.31;5031477;28;20031;-74
2023/02/10 04:25:48;;;;;;;83.00;48.97;;;;;;;-6.20;78.88;100109.53;5013879;28;20025;-74
2023/02/10 04:28:13;;;;;;;89.88;51.47;;;;;;;-6.11;78.93;100113.41;5044287;28;20040;-75
2023/02/10 04:30:38;;;;;;;89.40;64.68;;;;;;;-6.25;79.29;100106.34;5039971;28;20028;-75
2023/02/10 04:33:04;;;;;;;94.25;59.67;;;;;;;-6.24;80.09;100123.78;5051387;28;20059;-74
2023/02/10 04:35:29;;;;;;;92.25;66.13;;;;;;;-6.13;79.54;100120.50;5049936;28;20151;-73
2023/02/10 04:37:56;;;;;;;91.30;67.28;;;;;;;-6.26;80.66;100123.03;5050708;28;20405;-74
2023/02/10 04:40:21;;;;;;;94.45;54.33;;;;;;;-6.04;79.90;100126.03;5033602;28;20159;-73
2023/02/10 04:42:47;;;;;;;87.28;64.07;;;;;;;-5.90;79.10;100122.56;5066863;28;20574;-73
2023/02/10 04:45:12;;;;;;;98.00;55.22;;;;;;;-5.98;79.29;100112.56;5051385;28;20228;-74
2023/02/10 04:47:38;;;;;;;94.40;68.55;;;;;;;-6.11;80.04;100114.22;5049132;28;20481;-74
2023/02/10 04:50:04;;;;;;;102.50;74.35;;;;;;;-6.01;80.44;100120.63;5037449;28;20036;-74
2023/02/10 04:52:29;;;;;;;98.25;71.53;;;;;;;-5.96;79.96;100123.81;5075037;28;20029;-72
2023/02/10 04:54:55;;;;;;;101.75;73.25;;;;;;;-5.84;79.78;100117.78;5057780;28;20044;-73
2023/02/10 04:57:20;;;;;;;110.75;78.60;;;;;;;-5.79;80.14;100130.59;5015384;28;20112;-71
2023/02/10 04:59:45;;;;;;;103.45;68.43;;;;;;;-5.80;80.67;100124.50;5042045;28;20380;-72
2023/02/10 05:02:11;;;;;;;107.45;61.13;;;;;;;-5.91;80.08;100127.00;5019491;28;20045;-72
2023/02/10 05:04:36;;;;;;;100.00;66.60;;;;;;;-5.85;80.04;100147.59;5059499;28;20108;-72
2023/02/10 05:07:01;;;;;;;102.07;73.07;;;;;;;-5.88;80.81;100150.38;5046482;28;20528;-73
2023/02/10 05:09:27;;;;;;;96.45;62.22;;;;;;;-5.87;80.59;100146.84;5033718;28;20025;-75
2023/02/10 05:11:52;;;;;;;102.55;72.85;;;;;;;-5.90;80.74;100148.78;5065911;28;20044;-74
2023/02/10 05:14:18;;;;;;;98.57;64.40;;;;;;;-5.82;80.51;100157.03;5054815;28;20036;-75
2023/02/10 05:16:43;;;;;;;97.43;70.88;;;;;;;-5.90;79.97;100154.88;5040933;28;20155;-76
2023/02/10 05:19:09;;;;;;;102.22;63.42;;;;;;;-6.10;80.16;100162.28;5053987;28;20037;-76
2023/02/10 05:21:35;;;;;;;121.22;75.40;;;;;;;-6.04;79.92;100162.75;5048696;28;20060;-74
2023/02/10 05:24:00;;;;;;;116.68;70.72;;;;;;;-6.07;79.40;100162.94;5017069;28;20034;-73
2023/02/10 05:26:26;;;;;;;88.78;46.33;;;;;;;-6.01;78.90;100166.97;5051776;28;20033;-74
2023/02/10 05:28:51;;;;;;;86.55;65.97;;;;;;;-6.00;79.21;100169.50;5052456;28;20032;-74
2023/02/10 05:31:16;;;;;;;90.05;64.63;;;;;;;-6.11;79.33;100161.41;5056125;28;20489;-73
2023/02/10 05:33:42;;;;;;;88.20;63.80;;;;;;;-6.17;79.47;100172.28;5069689;28;20040;-75
2023/02/10 05:36:07;;;;;;;90.70;43.97;;;;;;;-6.31;80.11;100174.88;5054650;28;20403;-74
2023/02/10 05:38:33;;;;;;;88.13;62.50;;;;;;;-6.15;78.90;100170.41;5040391;28;20036;-73
2023/02/10 05:40:58;;;;;;;89.38;51.65;;;;;;;-6.26;80.69;100178.06;5039423;28;20136;-74
2023/02/10 05:43:23;;;;;;;90.85;65.13;;;;;;;-6.09;80.32;100170.03;5049722;28;20054;-76
2023/02/10 05:45:49;;;;;;;97.55;55.72;;;;;;;-6.15;80.30;100170.41;5016248;28;20090;-76
2023/02/10 05:48:14;;;;;;;91.00;60.13;;;;;;;-6.04;79.94;100175.84;5048802;28;20032;-73
2023/02/10 05:50:41;;;;;;;87.97;61.20;;;;;;;-6.06;80.03;100164.63;5032734;28;20064;-76
2023/02/10 05:53:13;;;;;;;93.30;51.67;;;;;;;-6.10;79.95;100178.00;5029601;28;20037;-75
2023/02/10 05:55:38;;;;;;;96.32;62.42;;;;;;;-5.94;80.66;100184.88;5044477;28;20041;-73
2023/02/10 05:58:03;;;;;;;92.05;54.60;;;;;;;-6.03;80.97;100185.41;5041937;28;20052;-74
2023/02/10 06:00:29;;;;;;;87.85;58.58;;;;;;;-5.81;80.33;100191.00;5041105;28;20087;-73
2023/02/10 06:02:54;;;;;;;93.80;63.40;;;;;;;-5.83;80.51;100182.41;5032630;28;20033;-74
2023/02/10 06:05:19;;;;;;;87.95;46.50;;;;;;;-5.87;80.27;100185.34;5045874;28;20433;-74
2023/02/10 06:07:45;;;;;;;90.82;64.20;;;;;;;-6.04;80.31;100188.97;5023892;28;20123;-74
2023/02/10 06:10:10;;;;;;;89.78;65.60;;;;;;;-5.80;80.10;100186.63;5037843;28;20396;-73
2023/02/10 06:12:35;;;;;;;92.05;68.47;;;;;;;-5.81;80.46;100191.00;5049186;28;20104;-76
2023/02/10 06:15:01;;;;;;;91.43;67.25;;;;;;;-5.68;79.96;100191.97;5046930;28;20041;-76
2023/02/10 06:17:27;;;;;;;94.97;65.22;;;;;;;-5.73;80.36;100199.28;5051342;28;20032;-73
2023/02/10 06:19:53;;;;;;;94.55;52.55;;;;;;;-5.70;80.20;100193.84;5037278;28;20030;-74
2023/02/10 06:22:18;;;;;;;95.47;56.33;;;;;;;-5.63;80.10;100196.94;5033910;28;20392;-72
2023/02/10 06:24:44;;;;;;;101.30;63.10;;;;;;;-5.60;81.08;100200.19;5049118;28;20116;-72
2023/02/10 06:27:09;;;;;;;96.03;63.42;;;;;;;-5.51;80.29;100211.09;5039757;28;20639;-73
2023/02/10 06:29:34;;;;;;;105.18;73.70;;;;;;;-5.71;80.41;100200.03;5067479;28;20025;-73
2023/02/10 06:32:00;;;;;;;109.00;78.82;;;;;;;-5.72;80.85;100198.31;5032367;28;20395;-74
2023/02/10 06:34:25;;;;;;;101.60;71.70;;;;;;;-5.77;80.75;100208.28;5031824;28;20120;-76
2023/02/10 06:36:50;;;;;;;107.20;75.72;;;;;;;-5.70;80.99;100217.47;5031370;28;20032;-74
2023/02/10 06:39:16;;;;;;;102.00;66.43;;;;;;;-5.80;81.35;100208.44;5015195;28;20502;-74
2023/02/10 06:41:41;;;;;;;102.20;67.45;;;;;;;-5.82;81.84;100225.22;5048697;28;20037;-74
2023/02/10 06:44:07;;;;;;;102.43;71.85;;;;;;;-5.78;82.41;100210.97;5033033;28;20446;-74
2023/02/10 06:46:33;;;;;;;103.13;66.28;;;;;;;-5.79;83.43;100225.03;5031928;28;20032;-73
2023/02/10 06:48:59;;;;;;;91.78;65.18;;;;;;;-5.57;82.39;100219.31;5047854;28;20033;-72
2023/02/10 06:51:25;;;;;;;108.13;76.57;;;;;;;-5.32;81.51;100224.78;5039544;28;20040;-73
2023/02/10 06:53:50;;;;;;;111.53;62.40;;;;;;;-5.24;81.79;100228.59;5038158;28;20106;-74
2023/02/10 06:56:15;;;;;;;120.03;73.32;;;;;;;-5.05;80.33;100225.66;5068106;28;20036;-75
2023/02/10 06:58:41;;;;;;;176.32;123.65;;;;;;;-5.02;81.25;100212.34;5050568;28;20033;-75
2023/02/10 07:01:11;;;;;;;179.07;92.20;;;;;;;-5.15;81.67;100216.66;5031164;28;20029;-76
2023/02/10 07:03:36;;;;;;;147.88;73.55;;;;;;;-5.03;82.13;100215.91;5032163;28;20041;-78
2023/02/10 07:06:03;;;;;;;123.95;76.10;;;;;;;-4.84;81.89;100219.06;5030962;28;20028;-76
2023/02/10 07:08:28;;;;;;;140.60;67.97;;;;;;;-4.85;81.62;100219.16;5031412;28;20021;-76
2023/02/10 07:10:54;;;;;;;140.00;68.45;;;;;;;-4.84;82.54;100216.44;5040744;28;20390;-74
2023/02/10 07:13:19;;;;;;;112.60;69.30;;;;;;;-4.80;82.33;100228.41;5037088;28;20029;-74
2023/02/10 07:15:46;;;;;;;107.50;65.32;;;;;;;-4.82;82.98;100225.06;5032338;28;20071;-75
2023/02/10 07:18:11;;;;;;;107.30;66.15;;;;;;;-4.67;82.88;100236.38;5044513;28;20044;-74
2023/02/10 07:20:36;;;;;;;113.43;76.25;;;;;;;-4.59;82.87;100237.56;5060290;28;20029;-75
2023/02/10 07:23:02;;;;;;;113.78;70.32;;;;;;;-4.50;81.83;100239.59;5047574;28;20037;-74
2023/02/10 07:25:27;;;;;;;105.57;71.10;;;;;;;-4.35;81.30;100235.97;5038446;28;20387;-75
2023/02/10 07:27:52;;;;;;;115.68;66.18;;;;;;;-4.35;81.08;100235.13;5036287;28;20120;-74
2023/02/10 07:30:18;;;;;;;107.57;72.95;;;;;;;-4.36;81.65;100236.91;5047691;28;20379;-74
2023/02/10 07:32:44;;;;;;;107.22;55.45;;;;;;;-4.23;81.58;100256.22;5061556;28;20053;-75
2023/02/10 07:35:10;;;;;;;99.32;73.75;;;;;;;-4.27;82.07;100238.91;5050988;28;20041;-75
2023/02/10 07:37:35;;;;;;;109.55;56.78;;;;;;;-4.12;80.75;100238.84;5067573;28;20512;-78
2023/02/10 07:40:01;;;;;;;107.35;60.70;;;;;;;-4.07;81.83;100250.75;5067879;28;20063;-76
2023/02/10 07:42:26;;;;;;;101.97;69.13;;;;;;;-3.99;80.85;100242.38;5050645;28;20033;-75
2023/02/10 07:45:07;;;;;;;103.50;63.85;;;;;;;-3.97;81.84;100251.00;5048024;28;20047;-75
2023/02/10 07:47:32;;;;;;;105.30;73.55;;;;;;;-4.00;82.25;100235.41;5050822;28;20033;-74
2023/02/10 07:49:57;;;;;;;101.57;64.40;;;;;;;-3.85;81.23;100245.75;5038159;28;20113;-75
2023/02/10 07:52:23;;;;;;;116.72;59.28;;;;;;;-3.81;81.71;100246.38;5023376;28;20057;-75
2023/02/10 07:54:49;;;;;;;104.55;62.47;;;;;;;-3.71;80.69;100247.47;5046893;28;20471;-75
2023/02/10 07:57:15;;;;;;;106.18;66.05;;;;;;;-3.75;80.79;100245.97;5029619;28;20398;-74
2023/02/10 07:59:40;;;;;;;101.70;64.75;;;;;;;-3.55;80.03;100242.84;5047034;28;20025;-74
2023/02/10 08:02:07;;;;;;;103.60;66.82;;;;;;;-3.60;80.92;100252.81;5042732;28;20064;-74
2023/02/10 08:04:32;;;;;;;98.10;64.72;;;;;;;-3.53;79.85;100252.31;5040513;28;20033;-75
2023/02/10 08:06:58;;;;;;;105.03;66.15;;;;;;;-3.48;80.71;100256.41;5053090;28;20049;-74
2023/02/10 08:09:23;;;;;;;104.82;57.63;;;;;;;-3.44;80.36;100248.19;5041486;28;20037;-74
2023/02/10 08:11:49;;;;;;;108.35;63.03;;;;;;;-3.30;79.71;100247.22;5027220;28;20037;-74
2023/02/10 08:14:14;;;;;;;106.57;56.70;;;;;;;-3.08;78.71;100255.34;5038826;28;20115;-74
2023/02/10 08:16:39;;;;;;;97.55;61.58;;;;;;;-3.27;79.31;100242.59;5036848;28;20064;-74
2023/02/10 08:19:05;;;;;;;96.85;66.47;;;;;;;-3.16;79.42;100250.59;5032589;28;20432;-75
2023/02/10 08:21:30;;;;;;;103.47;64.90;;;;;;;-3.32;80.42;100249.97;5033421;28;20060;-74
2023/02/10 08:23:56;;;;;;;93.63;63.10;;;;;;;-3.04;78.95;100244.47;5046348;28;20022;-74
2023/02/10 08:26:22;;;;;;;101.78;57.22;;;;;;;-2.98;78.69;100259.84;5035464;28;20037;-74
2023/02/10 08:28:48;;;;;;;103.93;58.38;;;;;;;-2.96;78.68;100268.47;5026156;28;20087;-74
2023/02/10 08:31:14;;;;;;;95.25;62.75;;;;;;;-2.97;79.23;100271.22;5048607;28;20083;-75
2023/02/10 08:33:41;;;;;;;101.30;61.92;;;;;;;-2.88;78.30;100275.84;5030081;28;20030;-74
2023/02/10 08:36:08;;;;;;;98.85;60.78;;;;;;;-2.80;78.49;100279.59;5046959;28;20041;-74
2023/02/10 08:38:34;;;;;;;98.03;57.70;;;;;;;-2.80;78.09;100278.75;5029614;28;20036;-74
2023/02/10 08:41:00;;;;;;;96.97;55.42;;;;;;;-2.66;77.61;100277.81;5034303;28;20037;-74
2023/02/10 08:43:26;;;;;;;96.50;59.95;;;;;;;-2.58;77.36;100276.28;5033904;28;20025;-75
2023/02/10 08:45:55;;;;;;;104.18;56.80;;;;;;;-2.49;76.70;100277.41;5020562;28;20041;-75
2023/02/10 08:48:20;;;;;;;92.82;66.53;;;;;;;-2.32;77.12;100283.16;5033200;28;20017;-74
2023/02/10 08:50:45;;;;;;;92.25;53.50;;;;;;;-2.43;76.49;100282.25;5037900;28;20040;-74
2023/02/10 08:53:11;;;;;;;96.05;55.15;;;;;;;-2.25;76.24;100296.75;5034939;28;20026;-74
2023/02/10 08:55:36;;;;;;;94.63;55.67;;;;;;;-2.31;76.68;100286.66;5034969;28;20944;-74
2023/02/10 08:58:02;;;;;;;87.22;64.57;;;;;;;-2.18;76.62;100293.53;5049673;28;20364;-76
2023/02/10 09:00:28;;;;;;;95.03;59.03;;;;;;;-2.27;75.60;100293.38;5033416;28;20041;-74
2023/02/10 09:02:53;;;;;;;96.05;59.03;;;;;;;-2.24;75.87;100295.81;5054615;28;20101;-74
2023/02/10 09:05:19;;;;;;;95.00;59.83;;;;;;;-2.29;76.61;100279.47;5034883;28;20037;-74
2023/02/10 09:07:45;;;;;;;81.80;65.85;;;;;;;-2.30;76.17;100283.03;5049245;28;20056;-74
2023/02/10 09:10:11;;;;;;;88.95;65.22;;;;;;;-2.10;75.59;100290.31;5049690;28;20392;-74
2023/02/10 09:12:38;;;;;;;83.45;65.80;;;;;;;-2.04;76.08;100287.25;5049869;28;20032;-74
2023/02/10 09:15:04;;;;;;;86.38;66.93;;;;;;;-2.05;75.77;100298.75;5049327;28;20052;-75
2023/02/10 09:17:29;;;;;;;87.80;63.78;;;;;;;-2.04;75.29;100300.44;5056853;28;20467;-73
2023/02/10 09:19:54;;;;;;;81.90;63.08;;;;;;;-2.21;75.37;100303.47;5049653;28;20036;-76
2023/02/10 09:22:20;;;;;;;82.55;62.40;;;;;;;-1.89;75.57;100299.28;5049588;28;20021;-74
2023/02/10 09:24:47;;;;;;;81.97;62.45;;;;;;;-1.69;75.20;100298.66;5036581;28;20450;-74
2023/02/10 09:27:14;;;;;;;81.15;62.40;;;;;;;-1.56;75.04;100306.47;5035443;28;20052;-75
2023/02/10 09:29:40;;;;;;;82.82;62.55;;;;;;;-1.77;75.33;100301.03;5054375;28;20041;-74
2023/02/10 09:32:05;;;;;;;82.28;62.15;;;;;;;-1.93;75.04;100308.41;5052631;28;20022;-74
2023/02/10 09:34:31;;;;;;;81.40;61.15;;;;;;;-1.53;74.32;100309.75;5040093;28;20037;-74
2023/02/10 09:37:00;;;;;;;74.40;58.38;;;;;;;-1.52;74.60;100318.53;5035788;28;20080;-74
2023/02/10 09:39:26;;;;;;;79.18;59.67;;;;;;;-1.59;74.02;100312.84;5032354;28;20029;-74
2023/02/10 09:42:01;;;;;;;79.70;60.17;;;;;;;-1.63;73.82;100306.09;5049508;28;20548;-73
2023/02/10 09:44:32;;;;;;;76.55;57.95;;;;;;;-1.64;73.41;100320.28;5056137;28;20044;-74
2023/02/10 09:47:06;;;;;;;85.38;60.35;;;;;;;-1.55;74.42;100309.03;5048739;28;20080;-74
2023/02/10 09:49:50;;;;;;;79.40;60.03;;;;;;;-1.44;73.81;100314.34;5030731;28;20495;-74
2023/02/10 09:52:34;;;;;;;78.53;59.65;;;;;;;-1.19;72.81;100325.69;5032886;28;20026;-74
2023/02/10 09:54:59;;;;;;;80.05;61.28;;;;;;;-1.21;72.98;100322.31;5036555;28;20113;-74
2023/02/10 09:57:32;;;;;;;79.72;59.38;;;;;;;-1.41;73.81;100323.81;5031683;28;20125;-73
2023/02/10 09:59:58;;;;;;;76.93;57.95;;;;;;;-1.42;72.86;100330.91;5045135;28;20036;-73
2023/02/10 10:02:35;;;;;;;78.53;58.22;;;;;;;-1.19;73.34;100331.78;5031680;28;20037;-74
2023/02/10 10:05:11;;;;;;;79.10;60.03;;;;;;;-1.14;72.50;100324.34;5025938;28;20029;-74
2023/02/10 10:07:40;;;;;;;79.60;59.78;;;;;;;-1.12;72.86;100329.53;5048783;28;20087;-73
2023/02/10 10:10:14;;;;;;;74.53;56.95;;;;;;;-1.08;72.41;100328.34;5047520;28;20105;-73
2023/02/10 10:12:40;;;;;;;78.43;60.20;;;;;;;-1.10;72.73;100325.81;5056936;28;20049;-74
2023/02/10 10:15:14;;;;;;;79.90;61.92;;;;;;;-1.00;72.50;100325.91;5035381;28;20028;-73
2023/02/10 10:17:52;;;;;;;121.53;94.18;;;;;;;-0.84;71.81;100329.09;5041961;28;20045;-73
2023/02/10 10:20:43;;;;;;;92.88;70.95;;;;;;;-0.97;72.10;100337.13;5062380;28;20033;-73
2023/02/10 10:24:00;;;;;;;87.53;66.80;;;;;;;-0.86;71.04;100337.13;5045642;28;20505;-74
2023/02/10 10:26:25;;;;;;;;;;;;;;;-0.89;71.66;100336.53;5008434;28;20061;-74
2023/02/10 10:29:06;;;;;;;78.03;60.57;;;;;;;-0.86;71.54;100337.13;5019084;28;20342;-73
2023/02/10 10:31:37;;;;;;;78.90;57.05;;;;;;;-0.73;71.55;100334.38;5027572;28;20128;-73
2023/02/10 10:34:14;;;;;;;73.78;57.22;;;;;;;-0.72;71.93;100338.69;5044604;28;20110;-74
2023/02/10 10:36:51;;;;;;;75.57;57.15;;;;;;;-0.76;71.05;100340.75;5038400;28;20041;-73
2023/02/10 10:39:38;;;;;;;73.28;57.47;;;;;;;-0.70;71.63;100340.25;5054981;28;20412;-73
2023/02/10 10:42:16;;;;;;;75.70;57.80;;;;;;;-0.79;71.67;100335.69;5041395;28;20037;-73
2023/02/10 10:44:42;;;;;;;76.85;56.65;;;;;;;-0.71;71.85;100329.78;5045215;28;20434;-73
2023/02/10 10:47:14;;;;;;;79.05;57.13;;;;;;;-0.67;70.86;100323.28;5060236;28;20036;-73
2023/02/10 10:49:40;;;;;;;74.18;54.92;;;;;;;-0.55;70.08;100322.31;5041629;28;20072;-73
2023/02/10 10:52:28;;;;;;;70.63;54.25;;;;;;;-0.48;69.87;100328.81;5055128;28;20434;-74
2023/02/10 10:54:55;;;;;;;73.85;52.42;;;;;;;-0.41;70.22;100318.56;5057915;28;20514;-73
2023/02/10 10:57:21;;;;;;;70.68;55.03;;;;;;;-0.39;70.13;100314.84;5034676;28;20032;-74
2023/02/10 10:59:52;;;;;;;80.35;56.00;;;;;;;-0.42;69.78;100317.72;5032630;28;20037;-73
2023/02/10 11:02:19;;;;;;;72.60;54.30;;;;;;;-0.35;70.22;100312.81;5034410;28;20040;-75
2023/02/10 11:04:46;;;;;;;79.60;56.20;;;;;;;-0.33;69.87;100311.72;5057697;28;20601;-74
2023/02/10 11:07:17;;;;;;;71.82;55.25;;;;;;;-0.42;70.41;100312.44;5029513;28;20417;-74
2023/02/10 11:09:49;;;;;;;72.35;55.25;;;;;;;-0.43;70.57;100310.75;5056864;28;20479;-73